createdAt,value
2023-01-04T00:01:07.092Z,9.93
2023-01-04T00:03:34.402Z,6.73
2023-01-04T00:06:03.430Z,7.13
2023-01-04T00:08:31.081Z,6.30
2023-01-04T00:11:05.833Z,7.10
2023-01-04T00:13:33.232Z,8.97
2023-01-04T00:16:07.796Z,4.73
2023-01-04T00:18:36.161Z,3.70
2023-01-04T00:21:13.461Z,6.53
2023-01-04T00:23:42.102Z,4.90
2023-01-04T00:26:19.937Z,5.97
2023-01-04T00:28:53.948Z,4.73
2023-01-04T00:31:22.372Z,13.10
2023-01-04T00:33:49.207Z,4.23
2023-01-04T00:36:16.368Z,4.13
2023-01-04T00:38:43.262Z,7.40
2023-01-04T00:41:34.353Z,9.10
2023-01-04T00:43:59.778Z,5.70
2023-01-04T00:46:26.880Z,4.73
2023-01-04T00:48:56.747Z,2.67
2023-01-04T00:51:27.571Z,5.90
2023-01-04T00:53:54.455Z,5.60
2023-01-04T00:56:21.543Z,12.90
2023-01-04T00:58:48.627Z,1.90
2023-01-04T01:01:15.772Z,4.60
2023-01-04T01:03:44.388Z,4.97
2023-01-04T01:06:12.292Z,5.60
2023-01-04T01:08:39.424Z,4.90
2023-01-04T01:11:08.815Z,4.40
2023-01-04T01:13:36.406Z,1.27
2023-01-04T01:16:05.256Z,4.70
2023-01-04T01:18:32.770Z,3.17
2023-01-04T01:20:59.725Z,4.07
2023-01-04T01:23:26.877Z,5.83
2023-01-04T01:25:53.929Z,9.43
2023-01-04T01:28:20.994Z,2.40
2023-01-04T01:30:48.053Z,6.97
2023-01-04T01:33:14.854Z,2.33
2023-01-04T01:35:41.881Z,1.40
2023-01-04T01:38:08.920Z,5.40
2023-01-04T01:40:35.941Z,3.93
2023-01-04T01:43:02.582Z,7.33
2023-01-04T01:45:34.177Z,6.80
2023-01-04T01:48:09.265Z,11.60
2023-01-04T01:50:43.218Z,5.43
2023-01-04T01:53:11.477Z,2.20
2023-01-04T01:55:40.790Z,6.47
2023-01-04T01:58:09.338Z,5.43
2023-01-04T02:00:36.629Z,5.67
2023-01-04T02:03:24.092Z,3.03
2023-01-04T02:05:54.130Z,3.23
2023-01-04T02:08:24.146Z,3.00
2023-01-04T02:10:51.061Z,5.23
2023-01-04T02:13:24.495Z,1.93
2023-01-04T02:16:43.837Z,1.70
2023-01-04T02:19:22.439Z,2.57
2023-01-04T02:22:05.516Z,1.57
2023-01-04T02:25:11.360Z,6.47
2023-01-04T02:27:53.722Z,3.47
2023-01-04T02:30:32.457Z,6.03
2023-01-04T02:32:59.481Z,2.97
2023-01-04T02:35:48.940Z,5.80
2023-01-04T02:38:25.551Z,4.73
2023-01-04T02:41:13.929Z,9.23
2023-01-04T02:44:23.716Z,3.80
2023-01-04T02:46:58.235Z,5.67
2023-01-04T02:49:44.310Z,8.00
2023-01-04T02:52:11.326Z,2.73
2023-01-04T02:54:38.737Z,1.33
2023-01-04T02:57:16.779Z,1.67
2023-01-04T03:00:07.225Z,2.77
2023-01-04T03:02:55.548Z,5.43
2023-01-04T03:06:01.729Z,4.50
2023-01-04T03:08:39.243Z,4.27
2023-01-04T03:11:30.478Z,4.33
2023-01-04T03:14:32.838Z,5.90
2023-01-04T03:16:54.551Z,3.13
2023-01-04T03:19:42.943Z,2.40
2023-01-04T03:22:32.922Z,1.10
2023-01-04T03:25:19.922Z,4.60
2023-01-04T03:28:07.990Z,2.37
2023-01-04T03:30:57.967Z,1.70
2023-01-04T03:33:43.443Z,7.73
2023-01-04T03:36:23.316Z,5.20
2023-01-04T03:39:26.187Z,5.10
2023-01-04T03:42:42.790Z,1.03
2023-01-04T03:45:41.871Z,7.23
2023-01-04T03:48:44.199Z,1.10
2023-01-04T03:51:22.294Z,7.00
2023-01-04T03:53:49.308Z,2.13
2023-01-04T03:56:18.456Z,1.90
2023-01-04T03:58:45.606Z,2.93
2023-01-04T04:01:13.200Z,2.87
2023-01-04T04:03:58.542Z,5.77
2023-01-04T04:06:43.957Z,11.90
2023-01-04T04:09:11.000Z,1.37
2023-01-04T04:11:38.030Z,4.20
2023-01-04T04:14:04.650Z,3.87
2023-01-04T04:16:31.773Z,1.47
2023-01-04T04:19:03.140Z,2.93
2023-01-04T04:21:33.680Z,4.87
2023-01-04T04:24:00.740Z,5.40
2023-01-04T04:26:27.805Z,2.93
2023-01-04T04:28:54.403Z,4.67
2023-01-04T04:31:21.500Z,1.67
2023-01-04T04:33:48.604Z,2.60
2023-01-04T04:36:15.430Z,8.37
2023-01-04T04:38:42.462Z,7.30
2023-01-04T04:41:30.052Z,3.23
2023-01-04T04:43:58.410Z,3.90
2023-01-04T04:46:25.425Z,1.50
2023-01-04T04:48:52.597Z,8.67
2023-01-04T04:51:19.678Z,3.43
2023-01-04T04:53:46.806Z,6.30
2023-01-04T04:56:13.851Z,0.93
2023-01-04T04:58:40.922Z,2.00
2023-01-04T05:01:08.093Z,8.43
2023-01-04T05:03:35.294Z,8.80
2023-01-04T05:06:02.505Z,9.73
2023-01-04T05:08:29.655Z,3.07
2023-01-04T05:10:56.742Z,2.47
2023-01-04T05:13:24.106Z,1.40
2023-01-04T05:15:52.799Z,1.90
2023-01-04T05:18:21.435Z,2.03
2023-01-04T05:20:48.473Z,6.63
2023-01-04T05:23:17.086Z,2.77
2023-01-04T05:25:44.197Z,5.47
2023-01-04T05:28:11.636Z,4.10
2023-01-04T05:30:51.224Z,5.33
2023-01-04T05:33:22.432Z,3.87
2023-01-04T05:35:50.075Z,2.43
2023-01-04T05:38:17.526Z,14.93
2023-01-04T05:40:44.642Z,7.20
2023-01-04T05:43:13.093Z,6.03
2023-01-04T05:45:41.137Z,3.20
2023-01-04T05:48:08.372Z,1.80
2023-01-04T05:50:35.481Z,3.60
2023-01-04T05:53:02.493Z,2.37
2023-01-04T05:55:29.547Z,2.20
2023-01-04T05:57:56.171Z,3.30
2023-01-04T06:00:23.325Z,1.60
2023-01-04T06:02:52.454Z,1.17
2023-01-04T06:05:19.805Z,3.67
2023-01-04T06:07:46.832Z,1.33
2023-01-04T06:10:13.797Z,1.80
2023-01-04T06:12:40.866Z,1.80
2023-01-04T06:15:09.589Z,1.93
2023-01-04T06:17:36.994Z,0.73
2023-01-04T06:20:05.883Z,0.70
2023-01-04T06:22:33.422Z,1.63
2023-01-04T06:25:00.640Z,0.70
2023-01-04T06:27:27.792Z,1.67
2023-01-04T06:29:55.042Z,3.73
2023-01-04T06:32:22.165Z,0.60
2023-01-04T06:34:48.940Z,0.70
2023-01-04T06:37:16.027Z,1.43
2023-01-04T06:39:42.626Z,1.27
2023-01-04T06:42:32.193Z,6.00
2023-01-04T06:44:59.300Z,0.80
2023-01-04T06:47:26.384Z,2.77
2023-01-04T06:49:53.648Z,1.20
2023-01-04T06:52:20.288Z,1.23
2023-01-04T06:54:47.459Z,1.07
2023-01-04T06:57:14.549Z,2.40
2023-01-04T06:59:41.146Z,1.47
2023-01-04T07:02:08.354Z,3.20
2023-01-04T07:04:35.550Z,2.23
2023-01-04T07:07:02.863Z,2.60
2023-01-04T07:09:29.511Z,2.20
2023-01-04T07:11:57.776Z,0.70
2023-01-04T07:14:25.000Z,1.90
2023-01-04T07:16:52.067Z,1.53
2023-01-04T07:19:18.708Z,1.00
2023-01-04T07:21:45.331Z,0.80
2023-01-04T07:24:12.456Z,1.10
2023-01-04T07:26:39.103Z,7.20
2023-01-04T07:29:15.698Z,0.83
2023-01-04T07:31:44.487Z,1.03
2023-01-04T07:34:11.603Z,1.10
2023-01-04T07:36:38.804Z,1.70
2023-01-04T07:39:06.022Z,2.23
2023-01-04T07:41:32.636Z,1.60
2023-01-04T07:44:01.362Z,3.20
2023-01-04T07:46:28.422Z,0.80
2023-01-04T07:48:55.181Z,1.80
2023-01-04T07:51:22.239Z,1.67
2023-01-04T07:53:48.964Z,2.03
2023-01-04T07:56:18.889Z,1.97
2023-01-04T07:58:45.758Z,2.57
2023-01-04T08:01:15.034Z,2.30
2023-01-04T08:03:42.421Z,2.60
2023-01-04T08:06:11.721Z,3.60
2023-01-04T08:08:38.975Z,6.90
2023-01-04T08:11:08.272Z,2.30
2023-01-04T08:13:35.351Z,2.60
2023-01-04T08:16:02.506Z,6.73
2023-01-04T08:18:29.626Z,3.50
2023-01-04T08:21:07.546Z,2.30
2023-01-04T08:23:35.950Z,3.80
2023-01-04T08:26:08.305Z,3.70
2023-01-04T08:28:35.621Z,13.93
2023-01-04T08:31:22.742Z,3.17
2023-01-04T08:33:50.192Z,3.40
2023-01-04T08:36:27.396Z,3.53
2023-01-04T08:39:01.369Z,3.00
2023-01-04T08:41:56.872Z,4.00
2023-01-04T08:44:21.539Z,2.13
2023-01-04T08:46:49.133Z,2.53
2023-01-04T08:49:16.492Z,4.23
2023-01-04T08:51:43.837Z,2.80
2023-01-04T08:54:11.114Z,1.90
2023-01-04T08:56:38.249Z,1.30
2023-01-04T08:59:05.679Z,2.60
2023-01-04T09:01:33.760Z,4.70
2023-01-04T09:04:00.660Z,3.37
2023-01-04T09:06:28.219Z,2.10
2023-01-04T09:08:56.684Z,1.67
2023-01-04T09:11:24.110Z,2.27
2023-01-04T09:14:06.339Z,1.93
2023-01-04T09:16:35.175Z,1.80
2023-01-04T09:19:02.339Z,2.50
2023-01-04T09:21:29.519Z,2.13
2023-01-04T09:23:58.189Z,2.20
2023-01-04T09:26:25.419Z,3.00
2023-01-04T09:28:53.927Z,2.50
2023-01-04T09:31:26.775Z,1.50
2023-01-04T09:36:40.593Z,2.30
2023-01-04T09:39:07.605Z,2.33
2023-01-04T09:41:44.742Z,3.10
2023-01-04T09:44:23.785Z,2.17
2023-01-04T09:47:00.622Z,1.37
2023-01-04T09:49:41.473Z,1.93
2023-01-04T09:52:14.299Z,2.10
2023-01-04T09:54:41.392Z,2.20
2023-01-04T09:57:18.265Z,1.40
2023-01-04T09:59:46.540Z,6.30
2023-01-04T10:02:19.027Z,2.43
2023-01-04T10:04:50.665Z,1.87
2023-01-04T10:07:28.967Z,3.83
2023-01-04T10:09:56.744Z,1.53
2023-01-04T10:12:59.768Z,2.50
2023-01-04T10:15:40.775Z,1.63
2023-01-04T10:21:32.321Z,2.00
2023-01-04T10:24:49.316Z,1.90
2023-01-04T10:27:26.246Z,1.87
2023-01-04T10:30:04.212Z,1.53
2023-01-04T10:32:41.283Z,0.83
2023-01-04T10:35:23.624Z,1.40
2023-01-04T10:37:54.135Z,1.47
2023-01-04T10:40:20.938Z,1.20
2023-01-04T10:42:50.534Z,1.10
2023-01-04T10:45:40.277Z,2.43
2023-01-04T10:48:18.174Z,1.30
2023-01-04T10:50:59.850Z,1.43
2023-01-04T10:53:47.599Z,2.40
2023-01-04T10:56:36.279Z,1.27
2023-01-04T10:59:29.669Z,1.80
2023-01-04T11:02:24.447Z,1.50
2023-01-04T11:05:07.018Z,0.87
2023-01-04T11:07:49.303Z,4.30
2023-01-04T11:10:25.814Z,1.20
2023-01-04T11:12:53.191Z,1.30
2023-01-04T11:15:20.066Z,1.53
2023-01-04T11:17:48.319Z,1.63
2023-01-04T11:20:15.492Z,1.23
2023-01-04T11:23:04.052Z,1.83
2023-01-04T11:25:37.746Z,3.23
2023-01-04T11:28:25.637Z,1.07
2023-01-04T11:31:02.189Z,1.53
2023-01-04T11:33:29.226Z,1.20
2023-01-04T11:35:58.983Z,1.40
2023-01-04T11:38:30.431Z,1.17
2023-01-04T11:41:07.498Z,4.10
2023-01-04T11:43:39.505Z,0.87
2023-01-04T11:46:29.123Z,4.40
2023-01-04T11:48:56.146Z,1.17
2023-01-04T11:51:31.713Z,0.97
2023-01-04T11:54:19.816Z,1.00
2023-01-04T11:57:12.181Z,0.80
2023-01-04T11:59:39.564Z,0.93
2023-01-04T12:02:59.625Z,0.83
2023-01-04T12:05:28.920Z,0.77
2023-01-04T12:07:57.389Z,1.20
2023-01-04T12:10:27.251Z,0.90
2023-01-04T12:12:56.338Z,1.57
2023-01-04T12:15:53.635Z,0.93
2023-01-04T12:18:26.332Z,0.87
2023-01-04T12:20:53.438Z,0.70
2023-01-04T12:23:20.466Z,0.80
2023-01-04T12:25:51.298Z,0.77
2023-01-04T12:28:42.190Z,1.20
2023-01-04T12:31:21.927Z,0.97
2023-01-04T12:33:59.384Z,0.67
2023-01-04T12:36:37.968Z,0.87
2023-01-04T12:39:29.050Z,3.70
2023-01-04T12:42:01.870Z,0.97
2023-01-04T12:44:40.582Z,0.93
2023-01-04T12:47:38.098Z,0.97
2023-01-04T12:50:13.863Z,1.03
2023-01-04T12:53:19.611Z,1.57
2023-01-04T12:55:44.182Z,2.10
2023-01-04T12:59:06.889Z,1.27
2023-01-04T13:01:27.467Z,4.30
2023-01-04T13:04:05.165Z,2.63
2023-01-04T13:06:39.548Z,1.03
2023-01-04T13:09:19.733Z,2.83
2023-01-04T13:12:33.202Z,1.60
2023-01-04T13:15:28.932Z,1.40
2023-01-04T13:17:57.636Z,1.53
2023-01-04T13:20:27.160Z,1.43
2023-01-04T13:22:56.632Z,11.60
2023-01-04T13:25:24.736Z,1.30
2023-01-04T13:27:56.214Z,1.50
2023-01-04T13:30:29.897Z,1.60
2023-01-04T13:33:25.034Z,1.70
2023-01-04T13:35:43.769Z,1.10
2023-01-04T13:38:16.692Z,5.80
2023-01-04T13:40:48.969Z,1.70
2023-01-04T13:43:16.699Z,2.57
2023-01-04T13:46:05.461Z,1.43
2023-01-04T13:48:37.728Z,1.60
2023-01-04T13:51:22.988Z,6.33
2023-01-04T13:53:54.943Z,5.57
2023-01-04T13:56:25.154Z,1.93
2023-01-04T13:58:52.218Z,2.40
2023-01-04T14:01:29.849Z,2.23
2023-01-04T14:03:57.062Z,1.73
2023-01-04T14:06:33.029Z,10.20
2023-01-04T14:09:13.306Z,2.83
2023-01-04T14:12:08.266Z,2.67
2023-01-04T14:15:06.397Z,6.63
2023-01-04T14:17:34.171Z,1.83
2023-01-04T14:20:11.345Z,5.10
2023-01-04T14:22:47.008Z,2.77
2023-01-04T14:25:44.613Z,1.50
2023-01-04T14:28:18.850Z,2.93
2023-01-04T14:30:59.506Z,1.50
2023-01-04T14:33:27.731Z,8.60
2023-01-04T14:36:05.059Z,2.27
2023-01-04T14:38:36.870Z,2.10
2023-01-04T14:41:22.081Z,1.90
2023-01-04T14:44:02.510Z,4.83
2023-01-04T14:46:31.431Z,8.23
2023-01-04T14:48:59.027Z,7.13
2023-01-04T14:51:35.216Z,5.90
2023-01-04T14:54:02.319Z,4.57
2023-01-04T14:56:28.946Z,6.20
2023-01-04T14:58:56.044Z,18.20
2023-01-04T15:01:23.198Z,7.97
2023-01-04T15:03:50.363Z,12.97
2023-01-04T15:06:17.098Z,6.30
2023-01-04T15:08:43.803Z,11.97
2023-01-04T15:11:14.106Z,6.10
2023-01-04T15:13:41.142Z,2.60
2023-01-04T15:16:11.862Z,3.60
2023-01-04T15:18:39.259Z,7.40
2023-01-04T15:21:06.358Z,3.27
2023-01-04T15:23:33.383Z,3.50
2023-01-04T15:26:03.499Z,12.47
2023-01-04T15:28:30.216Z,5.90
2023-01-04T15:30:57.062Z,8.60
2023-01-04T15:33:23.732Z,4.00
2023-01-04T15:36:02.134Z,3.83
2023-01-04T15:38:28.730Z,12.43
2023-01-04T15:41:10.824Z,5.40
2023-01-04T15:43:38.369Z,5.70
2023-01-04T15:46:07.440Z,6.70
2023-01-04T15:48:35.875Z,23.80
2023-01-04T15:51:10.051Z,8.03
2023-01-04T15:53:37.065Z,6.90
2023-01-04T15:56:13.414Z,7.30
2023-01-04T15:58:40.019Z,5.80
2023-01-04T16:01:10.665Z,7.77
2023-01-04T16:03:37.651Z,9.33
2023-01-04T16:06:09.599Z,15.53
2023-01-04T16:08:36.751Z,13.33
2023-01-04T16:11:19.929Z,10.87
2023-01-04T16:13:48.311Z,7.10
2023-01-04T16:16:16.303Z,11.70
2023-01-04T16:18:47.869Z,9.03
2023-01-04T16:21:16.248Z,17.10
2023-01-04T16:23:42.876Z,19.60
2023-01-04T16:26:14.487Z,7.73
2023-01-04T16:28:41.555Z,10.57
2023-01-04T16:31:08.979Z,9.67
2023-01-04T16:33:36.196Z,6.97
2023-01-04T16:36:05.871Z,5.73
2023-01-04T16:38:36.841Z,9.57
2023-01-04T16:41:04.767Z,6.67
2023-01-04T16:43:31.517Z,7.40
2023-01-04T16:46:13.463Z,7.30
2023-01-04T16:48:44.823Z,12.33
2023-01-04T16:51:11.906Z,14.87
2023-01-04T16:53:38.910Z,10.70
2023-01-04T16:56:08.250Z,9.40
2023-01-04T16:58:35.310Z,10.17
2023-01-04T17:01:16.849Z,9.10
2023-01-04T17:03:45.257Z,5.37
2023-01-04T17:06:18.733Z,11.53
2023-01-04T17:08:46.924Z,5.33
2023-01-04T17:14:07.808Z,14.27
2023-01-04T17:16:35.425Z,8.03
2023-01-04T17:19:02.633Z,13.03
2023-01-04T17:21:35.012Z,7.67
2023-01-04T17:24:02.442Z,9.60
2023-01-04T17:26:32.239Z,7.17
2023-01-04T17:29:00.487Z,10.30
2023-01-04T17:31:32.734Z,5.43
2023-01-04T17:33:59.874Z,9.83
2023-01-04T17:36:26.946Z,10.87
2023-01-04T17:38:54.123Z,9.57
2023-01-04T17:41:26.313Z,9.10
2023-01-04T17:43:57.168Z,12.17
2023-01-04T17:46:24.928Z,16.30
2023-01-04T17:49:21.190Z,14.60
2023-01-04T17:51:39.981Z,16.60
2023-01-04T17:54:08.221Z,12.80
2023-01-04T17:56:37.072Z,10.53
2023-01-04T17:59:06.702Z,17.47
2023-01-04T18:01:34.814Z,20.30
2023-01-04T18:04:02.258Z,18.27
2023-01-04T18:06:31.677Z,23.80
2023-01-04T18:09:00.007Z,21.47
2023-01-04T18:11:27.177Z,10.53
2023-01-04T18:13:54.293Z,10.53
2023-01-04T18:16:25.708Z,12.67
2023-01-04T18:18:58.003Z,18.67
2023-01-04T18:21:30.149Z,15.73
2023-01-04T18:24:34.970Z,18.63
2023-01-04T18:29:32.887Z,14.20
2023-01-04T18:32:00.057Z,16.73
2023-01-04T18:34:27.360Z,28.80
2023-01-04T18:36:54.483Z,11.60
2023-01-04T18:39:21.473Z,10.57
2023-01-04T18:41:48.627Z,25.60
2023-01-04T18:47:02.739Z,13.97
2023-01-04T18:49:29.842Z,13.93
2023-01-04T18:51:56.890Z,16.37
2023-01-04T18:54:23.821Z,20.73
2023-01-04T18:56:56.959Z,15.43
2023-01-04T18:59:27.719Z,12.00
2023-01-04T19:02:00.542Z,29.10
2023-01-04T19:04:28.382Z,14.70
2023-01-04T19:06:55.568Z,11.03
2023-01-04T19:09:22.876Z,9.97
2023-01-04T19:11:49.746Z,15.27
2023-01-04T19:14:16.801Z,24.83
2023-01-04T19:16:43.400Z,22.57
2023-01-04T19:19:10.738Z,30.20
2023-01-04T19:21:37.877Z,13.83
2023-01-04T19:24:04.776Z,24.40
2023-01-04T19:26:31.431Z,18.83
2023-01-04T19:28:58.277Z,8.40
2023-01-04T19:31:25.574Z,14.60
2023-01-04T19:33:52.679Z,12.97
2023-01-04T19:36:19.980Z,14.20
2023-01-04T19:38:47.108Z,12.70
2023-01-04T19:41:19.766Z,8.40
2023-01-04T19:43:47.056Z,20.33
2023-01-04T19:46:14.205Z,16.67
2023-01-04T19:48:41.342Z,13.30
2023-01-04T19:51:11.459Z,6.50
2023-01-04T19:53:38.996Z,9.97
2023-01-04T19:56:06.070Z,16.40
2023-01-04T19:58:32.947Z,8.97
2023-01-04T20:01:00.064Z,20.27
2023-01-04T20:03:27.329Z,13.83
2023-01-04T20:05:54.428Z,18.20
2023-01-04T20:08:21.719Z,16.77
2023-01-04T20:10:55.440Z,19.13
2023-01-04T20:13:22.942Z,19.73
2023-01-04T20:15:50.189Z,17.63
2023-01-04T20:18:17.343Z,18.83
2023-01-04T20:20:45.090Z,11.67
2023-01-04T20:23:13.158Z,10.83
2023-01-04T20:25:41.187Z,12.20
2023-01-04T20:28:08.686Z,14.70
2023-01-04T20:30:36.069Z,5.57
2023-01-04T20:33:03.359Z,15.53
2023-01-04T20:35:31.299Z,11.20
2023-01-04T20:37:58.600Z,7.27
2023-01-04T20:40:26.519Z,5.33
2023-01-04T20:43:12.959Z,3.10
2023-01-04T20:45:46.792Z,15.13
2023-01-04T20:48:14.969Z,5.70
2023-01-04T20:50:42.464Z,6.13
2023-01-04T20:53:09.689Z,8.73
2023-01-04T20:55:41.599Z,20.70
2023-01-04T20:58:08.969Z,4.43
2023-01-04T21:00:37.041Z,7.67
2023-01-04T21:03:05.664Z,6.80
2023-01-04T21:05:41.435Z,8.53
2023-01-04T21:08:08.797Z,9.60
2023-01-04T21:10:36.457Z,9.30
2023-01-04T21:13:03.858Z,12.07
2023-01-04T21:15:31.081Z,11.10
2023-01-04T21:17:57.860Z,8.90
2023-01-04T21:20:24.781Z,9.83
2023-01-04T21:22:51.866Z,10.30
2023-01-04T21:25:18.952Z,14.40
2023-01-04T21:27:46.017Z,5.47
2023-01-04T21:30:13.119Z,13.97
2023-01-04T21:32:40.140Z,14.67
2023-01-04T21:35:07.501Z,24.33
2023-01-04T21:37:34.195Z,21.23
2023-01-04T21:40:01.018Z,11.33
2023-01-04T21:42:28.226Z,8.70
2023-01-04T21:44:55.425Z,14.70
2023-01-04T21:47:22.578Z,17.33
2023-01-04T21:49:50.723Z,23.63
2023-01-04T21:52:17.430Z,17.53
2023-01-04T21:54:44.521Z,14.40
2023-01-04T21:57:11.557Z,16.33
2023-01-04T21:59:38.641Z,21.93
2023-01-04T22:02:05.839Z,20.73
2023-01-04T22:04:33.149Z,23.57
2023-01-04T22:07:00.181Z,22.83
2023-01-04T22:09:27.232Z,27.47
2023-01-04T22:11:53.869Z,6.60
2023-01-04T22:14:21.063Z,24.17
2023-01-04T22:16:48.148Z,14.90
2023-01-04T22:19:15.351Z,16.20
2023-01-04T22:21:42.566Z,24.27
2023-01-04T22:24:13.353Z,6.23
2023-01-04T22:26:40.913Z,9.30
2023-01-04T22:29:08.338Z,11.33
2023-01-04T22:31:35.414Z,7.20
2023-01-04T22:34:02.239Z,14.00
2023-01-04T22:36:29.420Z,13.80
2023-01-04T22:38:57.149Z,22.93
2023-01-04T22:41:26.315Z,10.07
2023-01-04T22:44:01.541Z,12.57
2023-01-04T22:46:29.221Z,11.27
2023-01-04T22:48:56.586Z,4.83
2023-01-04T22:51:24.263Z,9.37
2023-01-04T22:53:55.313Z,18.03
2023-01-04T22:56:23.207Z,15.03
2023-01-04T22:58:54.267Z,10.20
2023-01-04T23:01:23.776Z,20.33
2023-01-04T23:03:51.832Z,13.00
2023-01-04T23:06:18.825Z,12.20
2023-01-04T23:08:45.829Z,19.27
2023-01-04T23:11:15.559Z,24.13
2023-01-04T23:13:42.728Z,27.07
2023-01-04T23:16:13.955Z,18.63
2023-01-04T23:18:41.069Z,11.37
2023-01-04T23:21:08.388Z,22.20
2023-01-04T23:23:35.567Z,16.70
2023-01-04T23:26:13.954Z,6.93
2023-01-04T23:28:41.204Z,27.03
2023-01-04T23:31:11.444Z,13.57
2023-01-04T23:33:38.841Z,4.40
2023-01-04T23:36:09.934Z,10.20
2023-01-04T23:38:37.395Z,14.27
2023-01-04T23:41:04.481Z,23.93
2023-01-04T23:43:31.524Z,9.70
2023-01-04T23:45:58.169Z,5.43
2023-01-04T23:48:25.238Z,8.20
2023-01-04T23:50:56.531Z,18.33
2023-01-04T23:53:24.454Z,9.57
2023-01-04T23:55:56.556Z,16.80
2023-01-04T23:58:24.994Z,20.17
